createdAt,value
2023-05-10T00:01:01.086Z,50.96
2023-05-10T00:03:28.206Z,50.99
2023-05-10T00:05:55.470Z,50.73
2023-05-10T00:08:22.735Z,51.47
2023-05-10T00:10:50.382Z,51.00
2023-05-10T00:13:17.569Z,51.83
2023-05-10T00:15:44.622Z,52.39
2023-05-10T00:18:11.979Z,51.27
2023-05-10T00:20:39.019Z,53.21
2023-05-10T00:23:06.244Z,51.94
2023-05-10T00:25:33.628Z,50.48
2023-05-10T00:28:02.279Z,52.83
2023-05-10T00:30:29.379Z,53.98
2023-05-10T00:32:56.450Z,53.07
2023-05-10T00:35:23.787Z,52.38
2023-05-10T00:37:51.010Z,52.86
2023-05-10T00:40:18.360Z,52.64
2023-05-10T00:42:45.946Z,54.05
2023-05-10T00:45:13.057Z,51.57
2023-05-10T00:47:40.684Z,52.94
2023-05-10T00:50:09.698Z,53.10
2023-05-10T00:52:36.893Z,50.97
2023-05-10T00:55:04.988Z,53.15
2023-05-10T00:57:32.653Z,52.62
2023-05-10T01:00:00.384Z,52.76
2023-05-10T01:02:28.263Z,52.75
2023-05-10T01:04:56.191Z,52.77
2023-05-10T01:07:23.303Z,52.47
2023-05-10T01:09:50.420Z,52.38
2023-05-10T01:12:17.581Z,52.28
2023-05-10T01:14:44.858Z,52.71
2023-05-10T01:17:13.224Z,53.32
2023-05-10T01:19:40.493Z,53.86
2023-05-10T01:23:08.837Z,52.17
2023-05-10T01:27:01.005Z,53.29
2023-05-10T01:30:36.901Z,54.05
2023-05-10T01:33:32.945Z,55.16
2023-05-10T01:36:26.925Z,54.43
2023-05-10T01:39:12.729Z,53.96
2023-05-10T01:42:12.029Z,53.36
2023-05-10T01:45:26.676Z,53.91
2023-05-10T01:48:13.101Z,53.16
2023-05-10T01:50:46.364Z,53.80
2023-05-10T01:53:18.899Z,52.33
2023-05-10T01:55:56.169Z,53.13
2023-05-10T01:58:33.546Z,52.55
2023-05-10T02:01:05.127Z,53.16
2023-05-10T02:03:33.243Z,51.35
2023-05-10T02:06:00.728Z,52.47
2023-05-10T02:08:28.289Z,52.14
2023-05-10T02:10:57.769Z,53.53
2023-05-10T02:13:27.855Z,52.07
2023-05-10T02:15:56.655Z,53.96
2023-05-10T02:18:24.821Z,53.98
2023-05-10T02:20:53.523Z,53.95
2023-05-10T02:23:22.486Z,54.84
2023-05-10T02:25:54.794Z,53.53
2023-05-10T02:28:24.859Z,53.62
2023-05-10T02:30:53.909Z,54.32
2023-05-10T02:33:23.067Z,54.28
2023-05-10T02:35:51.933Z,54.31
2023-05-10T02:38:23.696Z,55.08
2023-05-10T02:40:51.716Z,53.51
2023-05-10T02:43:24.094Z,55.23
2023-05-10T02:45:51.243Z,54.14
2023-05-10T02:48:18.720Z,54.49
2023-05-10T02:50:52.137Z,55.37
2023-05-10T02:53:34.420Z,55.27
2023-05-10T02:56:12.025Z,52.78
2023-05-10T02:58:39.101Z,55.17
2023-05-10T03:01:07.710Z,55.94
2023-05-10T03:03:35.007Z,55.62
2023-05-10T03:06:02.150Z,54.54
2023-05-10T03:08:30.468Z,55.03
2023-05-10T03:11:40.996Z,55.13
2023-05-10T03:15:00.992Z,53.65
2023-05-10T03:17:59.222Z,54.88
2023-05-10T03:20:32.430Z,55.23
2023-05-10T03:23:30.312Z,54.54
2023-05-10T03:25:58.845Z,54.21
2023-05-10T03:28:28.087Z,53.93
2023-05-10T03:30:56.169Z,53.94
2023-05-10T03:33:23.320Z,52.57
2023-05-10T03:35:50.393Z,54.09
2023-05-10T03:38:17.450Z,54.98
2023-05-10T03:40:44.486Z,53.98
2023-05-10T03:43:11.558Z,54.37
2023-05-10T03:45:38.612Z,54.18
2023-05-10T03:48:09.557Z,54.00
2023-05-10T03:50:36.639Z,54.46
2023-05-10T03:53:03.767Z,54.40
2023-05-10T03:55:31.178Z,53.66
2023-05-10T03:57:59.416Z,53.37
2023-05-10T04:00:26.490Z,53.15
2023-05-10T04:02:53.650Z,53.10
2023-05-10T04:05:21.015Z,53.11
2023-05-10T04:07:50.188Z,52.48
2023-05-10T04:10:17.861Z,51.17
2023-05-10T04:12:45.218Z,54.00
2023-05-10T04:15:15.290Z,51.28
2023-05-10T04:17:42.427Z,51.90
2023-05-10T04:20:10.689Z,53.06
2023-05-10T04:22:37.823Z,52.32
2023-05-10T04:25:06.041Z,51.32
2023-05-10T04:27:33.341Z,52.03
2023-05-10T04:30:01.988Z,50.52
2023-05-10T04:32:29.227Z,50.46
2023-05-10T04:34:56.358Z,48.61
2023-05-10T04:37:24.176Z,49.97
2023-05-10T04:39:54.238Z,49.63
2023-05-10T04:42:21.332Z,49.79
2023-05-10T04:44:48.376Z,48.46
2023-05-10T04:47:17.190Z,47.11
2023-05-10T04:49:47.189Z,47.47
2023-05-10T04:52:15.322Z,47.62
2023-05-10T04:54:44.747Z,46.86
2023-05-10T04:57:11.816Z,47.50
2023-05-10T04:59:38.938Z,47.96
2023-05-10T05:02:06.717Z,46.78
2023-05-10T05:04:36.893Z,46.96
2023-05-10T05:07:03.978Z,47.61
2023-05-10T05:09:34.077Z,47.82
2023-05-10T05:12:01.415Z,47.11
2023-05-10T05:14:28.463Z,44.88
2023-05-10T05:16:55.550Z,44.49
2023-05-10T05:19:23.521Z,45.64
2023-05-10T05:21:50.760Z,45.95
2023-05-10T05:24:17.824Z,47.02
2023-05-10T05:26:44.954Z,45.15
2023-05-10T05:29:12.204Z,44.39
2023-05-10T05:31:39.582Z,44.52
2023-05-10T05:34:06.820Z,43.91
2023-05-10T05:36:39.300Z,44.40
2023-05-10T05:39:06.586Z,44.33
2023-05-10T05:41:36.857Z,43.23
2023-05-10T05:44:04.092Z,43.73
2023-05-10T05:46:31.430Z,42.66
2023-05-10T05:48:58.707Z,43.67
2023-05-10T05:51:26.232Z,42.88
2023-05-10T05:53:53.989Z,44.37
2023-05-10T05:56:25.501Z,43.19
2023-05-10T05:58:53.053Z,41.46
2023-05-10T06:01:20.552Z,39.81
2023-05-10T06:03:48.195Z,41.04
2023-05-10T06:06:16.216Z,41.45
2023-05-10T06:08:43.508Z,41.61
2023-05-10T06:11:10.793Z,42.20
2023-05-10T06:13:38.004Z,40.81
2023-05-10T06:16:05.620Z,41.13
2023-05-10T06:18:32.849Z,40.36
2023-05-10T06:21:06.202Z,41.11
2023-05-10T06:23:33.289Z,41.86
2023-05-10T06:26:00.384Z,41.01
2023-05-10T06:28:27.675Z,41.61
2023-05-10T06:30:54.725Z,42.75
2023-05-10T06:33:21.764Z,43.32
2023-05-10T06:35:48.912Z,42.38
2023-05-10T06:38:16.139Z,40.44
2023-05-10T06:40:46.703Z,43.13
2023-05-10T06:43:13.934Z,42.02
2023-05-10T06:45:41.865Z,39.89
2023-05-10T06:48:09.189Z,41.58
2023-05-10T06:50:36.506Z,41.79
2023-05-10T06:53:03.805Z,39.62
2023-05-10T06:55:32.184Z,39.06
2023-05-10T06:57:59.219Z,38.99
2023-05-10T07:00:26.440Z,39.69
2023-05-10T07:02:53.719Z,39.51
2023-05-10T07:05:21.239Z,40.28
2023-05-10T07:07:48.767Z,39.78
2023-05-10T07:10:16.282Z,40.40
2023-05-10T07:12:43.525Z,38.59
2023-05-10T07:15:11.437Z,37.91
2023-05-10T07:17:38.744Z,37.09
2023-05-10T07:20:09.762Z,38.20
2023-05-10T07:22:39.579Z,37.21
2023-05-10T07:25:10.828Z,39.80
2023-05-10T07:27:37.871Z,40.27
2023-05-10T07:30:05.792Z,39.71
2023-05-10T07:32:33.227Z,39.35
2023-05-10T07:35:00.752Z,38.78
2023-05-10T07:37:27.932Z,38.76
2023-05-10T07:39:55.057Z,39.39
2023-05-10T07:42:24.118Z,39.99
2023-05-10T07:44:52.019Z,37.81
2023-05-10T07:47:19.898Z,37.13
2023-05-10T07:49:47.263Z,39.13
2023-05-10T07:52:14.820Z,39.48
2023-05-10T07:54:42.223Z,37.86
2023-05-10T07:57:09.611Z,38.64
2023-05-10T07:59:37.436Z,39.09
2023-05-10T08:02:05.052Z,40.54
2023-05-10T08:04:33.258Z,39.59
2023-05-10T08:07:00.386Z,38.06
2023-05-10T08:09:39.333Z,37.91
2023-05-10T08:12:07.087Z,38.09
2023-05-10T08:14:34.265Z,37.68
2023-05-10T08:17:04.798Z,38.92
2023-05-10T08:19:32.024Z,40.26
2023-05-10T08:21:59.230Z,36.36
2023-05-10T08:24:26.486Z,35.61
2023-05-10T08:26:54.077Z,38.25
2023-05-10T08:29:21.484Z,36.28
2023-05-10T08:31:48.639Z,35.39
2023-05-10T08:36:43.335Z,35.66
2023-05-10T08:39:22.973Z,37.27
2023-05-10T08:42:02.948Z,35.27
2023-05-10T08:44:36.194Z,35.50
2023-05-10T08:47:09.113Z,35.17
2023-05-10T08:49:38.026Z,34.97
2023-05-10T08:52:06.877Z,32.68
2023-05-10T08:54:35.131Z,35.42
2023-05-10T08:57:05.750Z,34.25
2023-05-10T08:59:40.377Z,32.99
2023-05-10T09:02:09.624Z,34.03
2023-05-10T09:04:38.870Z,33.70
2023-05-10T09:07:08.142Z,32.02
2023-05-10T09:09:36.048Z,32.53
2023-05-10T09:12:03.373Z,34.58
2023-05-10T09:14:36.276Z,33.98
2023-05-10T09:17:03.659Z,32.23
2023-05-10T09:19:30.784Z,33.92
2023-05-10T09:21:57.922Z,35.44
2023-05-10T09:24:28.084Z,33.36
2023-05-10T09:26:57.519Z,35.22
2023-05-10T09:29:24.802Z,35.17
2023-05-10T09:31:55.441Z,30.67
2023-05-10T09:34:32.983Z,30.50
2023-05-10T09:37:05.120Z,35.26
2023-05-10T09:39:38.458Z,34.02
2023-05-10T09:42:10.887Z,33.81
2023-05-10T09:44:42.022Z,33.16
2023-05-10T09:47:09.119Z,32.50
2023-05-10T09:49:36.176Z,29.31
2023-05-10T09:52:06.306Z,31.37
2023-05-10T09:54:35.147Z,31.48
2023-05-10T09:57:04.078Z,29.76
2023-05-10T09:59:35.748Z,29.03
2023-05-10T10:02:03.689Z,29.29
2023-05-10T10:04:31.289Z,29.57
2023-05-10T10:07:04.719Z,32.84
2023-05-10T10:09:33.604Z,31.52
2023-05-10T10:12:02.938Z,31.58
2023-05-10T10:14:31.685Z,32.20
2023-05-10T10:17:08.033Z,28.59
2023-05-10T10:19:37.942Z,31.08
2023-05-10T10:22:06.924Z,29.33
2023-05-10T10:24:34.902Z,28.19
2023-05-10T10:27:53.913Z,30.94
2023-05-10T10:30:45.018Z,30.73
2023-05-10T10:34:10.749Z,26.81
2023-05-10T10:36:48.145Z,26.21
2023-05-10T10:39:16.103Z,32.15
2023-05-10T10:41:55.766Z,30.12
2023-05-10T10:44:34.947Z,27.41
2023-05-10T10:47:19.430Z,26.69
2023-05-10T10:50:01.583Z,26.86
2023-05-10T10:52:40.082Z,28.22
2023-05-10T10:55:15.813Z,27.69
2023-05-10T10:58:03.139Z,28.30
2023-05-10T11:00:41.970Z,28.11
2023-05-10T11:03:21.992Z,30.50
2023-05-10T11:05:52.249Z,28.08
2023-05-10T11:08:34.042Z,31.32
2023-05-10T11:11:04.979Z,30.63
2023-05-10T11:13:50.813Z,27.92
2023-05-10T11:16:24.794Z,28.25
2023-05-10T11:19:12.986Z,28.75
2023-05-10T11:22:16.495Z,27.62
2023-05-10T11:24:59.539Z,28.26
2023-05-10T11:27:26.854Z,30.06
2023-05-10T11:29:54.193Z,28.71
2023-05-10T11:32:21.778Z,26.68
2023-05-10T11:34:49.483Z,26.80
2023-05-10T11:37:21.697Z,28.48
2023-05-10T11:39:48.721Z,29.20
2023-05-10T11:42:16.130Z,29.50
2023-05-10T11:44:45.309Z,27.53
2023-05-10T11:47:13.575Z,26.26
2023-05-10T11:49:44.213Z,27.24
2023-05-10T11:52:12.457Z,28.45
2023-05-10T11:54:47.613Z,31.49
2023-05-10T11:57:16.303Z,30.46
2023-05-10T11:59:43.387Z,28.86
2023-05-10T12:02:11.433Z,25.13
2023-05-10T12:04:39.084Z,28.86
2023-05-10T12:07:06.543Z,29.90
2023-05-10T12:09:43.325Z,28.01
2023-05-10T12:12:16.856Z,28.23
2023-05-10T12:14:44.299Z,26.53
2023-05-10T12:17:14.531Z,26.71
2023-05-10T12:19:44.703Z,26.18
2023-05-10T12:22:11.857Z,25.40
2023-05-10T12:24:39.697Z,23.62
2023-05-10T12:27:09.377Z,23.40
2023-05-10T12:29:36.899Z,24.00
2023-05-10T12:32:04.071Z,24.02
2023-05-10T12:34:39.798Z,22.49
2023-05-10T12:37:10.054Z,24.89
2023-05-10T12:39:47.251Z,24.17
2023-05-10T12:42:14.577Z,24.25
2023-05-10T12:44:42.387Z,28.53
2023-05-10T12:47:09.688Z,26.07
2023-05-10T12:49:36.846Z,30.56
2023-05-10T12:52:04.441Z,27.69
2023-05-10T12:54:31.665Z,24.45
2023-05-10T12:56:59.168Z,26.31
2023-05-10T12:59:26.468Z,25.63
2023-05-10T13:01:53.605Z,27.02
2023-05-10T13:04:20.740Z,24.33
2023-05-10T13:06:47.978Z,25.43
2023-05-10T13:09:16.062Z,26.27
2023-05-10T13:11:43.243Z,26.10
2023-05-10T13:14:10.451Z,26.40
2023-05-10T13:16:37.690Z,26.42
2023-05-10T13:19:05.086Z,27.38
2023-05-10T13:21:35.702Z,23.90
2023-05-10T13:24:05.252Z,23.56
2023-05-10T13:26:32.317Z,25.17
2023-05-10T13:28:59.608Z,25.49
2023-05-10T13:31:26.787Z,25.41
2023-05-10T13:33:54.309Z,23.90
2023-05-10T13:36:21.473Z,23.65
2023-05-10T13:38:48.521Z,21.22
2023-05-10T13:41:15.710Z,22.76
2023-05-10T13:43:42.807Z,23.35
2023-05-10T13:46:10.381Z,28.60
2023-05-10T13:48:40.147Z,25.03
2023-05-10T13:51:07.468Z,23.70
2023-05-10T13:53:35.636Z,22.79
2023-05-10T13:56:03.805Z,21.69
2023-05-10T13:58:33.606Z,21.93
2023-05-10T14:01:00.763Z,21.52
2023-05-10T14:03:28.071Z,20.23
2023-05-10T14:05:57.813Z,20.60
2023-05-10T14:08:25.193Z,19.51
2023-05-10T14:10:53.216Z,19.04
2023-05-10T14:13:20.363Z,19.38
2023-05-10T14:15:47.428Z,19.49
2023-05-10T14:18:15.447Z,20.46
2023-05-10T14:20:45.618Z,21.01
2023-05-10T14:23:13.389Z,19.89
2023-05-10T14:25:43.666Z,20.25
2023-05-10T14:28:11.590Z,21.65
2023-05-10T14:30:38.660Z,21.78
2023-05-10T14:33:11.876Z,19.45
2023-05-10T14:35:38.954Z,20.61
2023-05-10T14:38:06.523Z,19.10
2023-05-10T14:40:34.055Z,19.10
2023-05-10T14:43:01.647Z,18.07
2023-05-10T14:45:30.731Z,19.54
2023-05-10T14:47:59.353Z,18.61
2023-05-10T14:50:36.532Z,18.45
2023-05-10T14:53:06.663Z,18.92
2023-05-10T14:55:33.890Z,19.18
2023-05-10T14:58:00.987Z,17.94
2023-05-10T15:00:30.441Z,19.07
2023-05-10T15:02:58.547Z,17.32
2023-05-10T15:05:26.544Z,18.90
2023-05-10T15:07:54.036Z,18.74
2023-05-10T15:10:21.097Z,18.70
2023-05-10T15:12:48.267Z,19.37
2023-05-10T15:15:16.228Z,20.96
2023-05-10T15:17:43.609Z,20.60
2023-05-10T15:20:11.315Z,20.37
2023-05-10T15:22:39.153Z,20.62
2023-05-10T15:25:08.340Z,19.35
2023-05-10T15:27:36.154Z,18.83
2023-05-10T15:30:03.552Z,18.87
2023-05-10T15:32:30.709Z,19.93
2023-05-10T15:34:58.008Z,21.26
2023-05-10T15:37:25.411Z,22.46
2023-05-10T15:39:52.435Z,20.52
2023-05-10T15:42:22.827Z,19.22
2023-05-10T15:44:51.140Z,18.52
2023-05-10T15:47:18.390Z,18.28
2023-05-10T15:49:45.690Z,17.95
2023-05-10T15:52:12.854Z,16.89
2023-05-10T15:54:40.693Z,17.48
2023-05-10T15:57:08.035Z,18.21
2023-05-10T15:59:36.369Z,20.36
2023-05-10T16:02:04.366Z,19.68
2023-05-10T16:04:31.548Z,21.04
2023-05-10T16:06:58.691Z,21.06
2023-05-10T16:09:27.534Z,21.84
2023-05-10T16:11:54.785Z,21.79
2023-05-10T16:14:22.924Z,23.03
2023-05-10T16:16:50.374Z,21.78
2023-05-10T16:19:17.772Z,21.95
2023-05-10T16:21:44.952Z,21.78
2023-05-10T16:24:12.231Z,21.83
2023-05-10T16:26:40.967Z,23.79
2023-05-10T16:29:09.324Z,24.23
2023-05-10T16:31:36.453Z,23.82
2023-05-10T16:34:03.785Z,25.30
2023-05-10T16:36:31.562Z,23.50
2023-05-10T16:38:58.892Z,23.29
2023-05-10T16:41:26.450Z,24.62
2023-05-10T16:43:55.101Z,23.31
2023-05-10T16:46:22.216Z,23.81
2023-05-10T16:48:49.399Z,24.63
2023-05-10T16:51:16.460Z,24.16
2023-05-10T16:53:43.700Z,24.13
2023-05-10T16:56:11.253Z,23.91
2023-05-10T16:58:39.471Z,24.64
2023-05-10T17:01:07.208Z,24.67
2023-05-10T17:03:34.657Z,24.94
2023-05-10T17:06:01.880Z,24.90
2023-05-10T17:08:28.955Z,24.94
2023-05-10T17:10:56.440Z,24.67
2023-05-10T17:13:23.508Z,24.95
2023-05-10T17:15:50.640Z,24.97
2023-05-10T17:18:18.157Z,24.50
2023-05-10T17:20:45.325Z,25.03
2023-05-10T17:23:12.590Z,26.00
2023-05-10T17:25:39.697Z,28.69
2023-05-10T17:28:06.737Z,31.35
2023-05-10T17:30:33.948Z,38.23
2023-05-10T17:33:01.833Z,39.04
2023-05-10T17:35:31.273Z,37.04
2023-05-10T17:37:58.310Z,37.00
2023-05-10T17:40:25.457Z,39.90
2023-05-10T17:42:52.575Z,39.95
2023-05-10T17:45:19.903Z,37.80
2023-05-10T17:47:47.184Z,38.72
2023-05-10T17:50:14.304Z,42.12
2023-05-10T17:52:41.411Z,42.47
2023-05-10T17:55:09.040Z,41.77
2023-05-10T17:57:38.073Z,41.95
2023-05-10T18:00:09.120Z,41.73
2023-05-10T18:02:37.002Z,41.02
2023-05-10T18:05:05.478Z,41.82
2023-05-10T18:07:32.664Z,41.35
2023-05-10T18:10:00.973Z,44.85
2023-05-10T18:12:28.107Z,43.03
2023-05-10T18:14:55.170Z,43.26
2023-05-10T18:17:22.366Z,43.22
2023-05-10T18:19:49.511Z,43.74
2023-05-10T18:22:16.573Z,44.09
2023-05-10T18:24:43.647Z,44.26
2023-05-10T18:27:11.270Z,43.81
2023-05-10T18:29:39.389Z,45.25
2023-05-10T18:32:07.378Z,44.64
2023-05-10T18:34:34.459Z,44.66
2023-05-10T18:37:07.035Z,45.89
2023-05-10T18:39:34.495Z,44.73
2023-05-10T18:42:01.751Z,44.76
2023-05-10T18:44:28.901Z,44.30
2023-05-10T18:46:56.551Z,43.99
2023-05-10T18:49:23.826Z,44.44
2023-05-10T18:51:51.201Z,44.21
2023-05-10T18:54:18.330Z,44.75
2023-05-10T18:56:45.542Z,45.13
2023-05-10T18:59:13.428Z,45.98
2023-05-10T19:01:43.769Z,45.96
2023-05-10T19:04:13.223Z,46.01
2023-05-10T19:06:43.276Z,47.19
2023-05-10T19:09:10.663Z,48.65
2023-05-10T19:11:37.796Z,48.93
2023-05-10T19:14:05.784Z,48.15
2023-05-10T19:16:34.494Z,49.80
2023-05-10T19:19:02.955Z,47.90
2023-05-10T19:21:31.514Z,47.53
2023-05-10T19:23:58.921Z,47.35
2023-05-10T19:26:26.004Z,47.49
2023-05-10T19:28:53.729Z,47.59
2023-05-10T19:31:21.768Z,48.19
2023-05-10T19:33:49.068Z,48.76
2023-05-10T19:36:16.282Z,50.76
2023-05-10T19:38:43.434Z,49.67
2023-05-10T19:41:11.364Z,51.15
2023-05-10T19:43:39.528Z,50.82
2023-05-10T19:46:06.695Z,50.31
2023-05-10T19:48:33.776Z,48.93
2023-05-10T19:51:03.907Z,50.43
2023-05-10T19:53:32.340Z,50.94
2023-05-10T19:56:06.457Z,53.37
2023-05-10T19:58:34.097Z,53.48
2023-05-10T20:01:01.650Z,52.94
2023-05-10T20:03:29.110Z,53.23
2023-05-10T20:05:56.295Z,52.58
2023-05-10T20:08:23.392Z,54.07
2023-05-10T20:10:50.669Z,51.98
2023-05-10T20:13:17.906Z,53.10
2023-05-10T20:15:46.074Z,51.63
2023-05-10T20:18:13.171Z,51.12
2023-05-10T20:20:40.298Z,53.83
2023-05-10T20:23:07.441Z,51.29
2023-05-10T20:25:38.002Z,50.54
2023-05-10T20:28:05.765Z,51.14
2023-05-10T20:30:32.938Z,54.19
2023-05-10T20:33:00.116Z,53.99
2023-05-10T20:35:27.393Z,54.84
2023-05-10T20:37:54.474Z,59.77
2023-05-10T20:40:21.610Z,60.23
2023-05-10T20:42:49.572Z,59.44
2023-05-10T20:45:16.686Z,57.68
2023-05-10T20:47:44.060Z,56.13
2023-05-10T20:50:11.713Z,56.69
2023-05-10T20:52:38.800Z,53.82
2023-05-10T20:55:06.896Z,52.00
2023-05-10T20:57:33.954Z,55.12
2023-05-10T21:00:01.062Z,52.79
2023-05-10T21:02:28.219Z,56.94
2023-05-10T21:04:57.806Z,56.35
2023-05-10T21:07:25.424Z,56.23
2023-05-10T21:09:52.539Z,58.23
2023-05-10T21:12:21.757Z,56.50
2023-05-10T21:14:48.865Z,55.53
2023-05-10T21:17:16.954Z,55.78
2023-05-10T21:19:45.124Z,58.55
2023-05-10T21:22:12.162Z,58.88
2023-05-10T21:24:39.214Z,56.88
2023-05-10T21:27:07.451Z,59.96
2023-05-10T21:29:34.608Z,59.01
2023-05-10T21:32:01.733Z,57.25
2023-05-10T21:34:28.983Z,54.35
2023-05-10T21:36:56.068Z,53.50
2023-05-10T21:39:23.169Z,54.87
2023-05-10T21:41:50.216Z,54.40
2023-05-10T21:44:20.071Z,53.89
2023-05-10T21:46:47.346Z,54.63
2023-05-10T21:49:14.387Z,56.00
2023-05-10T21:51:44.055Z,54.20
2023-05-10T21:54:11.238Z,54.83
2023-05-10T21:56:38.561Z,56.02
2023-05-10T21:59:06.052Z,55.95
2023-05-10T22:01:33.190Z,54.81
2023-05-10T22:04:00.637Z,54.59
2023-05-10T22:06:27.832Z,55.31
2023-05-10T22:08:54.882Z,55.55
2023-05-10T22:11:21.962Z,55.45
2023-05-10T22:13:49.024Z,56.72
2023-05-10T22:16:18.168Z,55.24
2023-05-10T22:18:45.277Z,55.56
2023-05-10T22:21:15.154Z,56.97
2023-05-10T22:23:42.240Z,58.64
2023-05-10T22:26:09.458Z,58.57
2023-05-10T22:28:39.032Z,56.37
2023-05-10T22:31:13.427Z,56.47
2023-05-10T22:33:40.557Z,56.11
2023-05-10T22:36:08.385Z,55.56
2023-05-10T22:38:35.462Z,55.83
2023-05-10T22:41:02.547Z,56.51
2023-05-10T22:43:29.634Z,61.86
2023-05-10T22:45:56.702Z,64.84
2023-05-10T22:48:23.869Z,64.13
2023-05-10T22:50:51.927Z,66.52
2023-05-10T22:53:18.984Z,67.77
2023-05-10T22:55:46.995Z,65.93
2023-05-10T22:58:14.102Z,65.77
2023-05-10T23:00:41.224Z,65.29
2023-05-10T23:03:08.401Z,67.55
2023-05-10T23:05:37.915Z,68.50
2023-05-10T23:08:05.645Z,68.66
2023-05-10T23:10:32.870Z,67.55
2023-05-10T23:12:59.989Z,67.24
2023-05-10T23:16:18.785Z,69.19
2023-05-10T23:18:45.958Z,69.92
2023-05-10T23:21:13.033Z,68.57
2023-05-10T23:23:40.523Z,68.67
2023-05-10T23:26:08.734Z,67.92
2023-05-10T23:28:35.815Z,67.23
2023-05-10T23:31:02.895Z,67.96
2023-05-10T23:33:29.937Z,67.27
2023-05-10T23:35:59.935Z,67.77
2023-05-10T23:38:27.083Z,67.63
2023-05-10T23:40:54.372Z,69.35
2023-05-10T23:43:21.847Z,68.19
2023-05-10T23:45:56.753Z,68.50
2023-05-10T23:48:24.345Z,68.74
2023-05-10T23:50:51.734Z,66.28
2023-05-10T23:53:19.199Z,66.71
2023-05-10T23:55:46.346Z,69.58
2023-05-10T23:58:13.553Z,69.90
